Time;durP1;ratioP1;P1;durP2;ratioP2;P2;SDS_P1;SDS_P2;PMS_P1;PMS_P2;Temp;Humidity;BMP_temperature;BMP_pressure;BME280_temperature;BME280_humidity;BME280_pressure;Samples;Min_cycle;Max_cycle;Signal;HPM_P1;HPM_P2
2021/10/11 00:02:04;;;;;;;68.80;46.13;;;;;;;13.23;82.04;102252.22;5053762;28;20048;-66
2021/10/11 00:04:32;;;;;;;64.88;46.65;;;;;;;13.55;81.37;102260.72;5053772;28;20059;-66
2021/10/11 00:06:59;;;;;;;64.53;46.38;;;;;;;13.91;80.08;102257.47;5053327;28;20591;-65
2021/10/11 00:09:26;;;;;;;63.22;46.25;;;;;;;13.94;78.90;102254.94;5053698;28;20045;-66
2021/10/11 00:11:54;;;;;;;67.72;44.80;;;;;;;13.75;79.80;102251.31;5054682;28;20061;-66
2021/10/11 00:14:21;;;;;;;64.20;47.00;;;;;;;13.76;79.93;102255.72;5053035;28;20064;-66
2021/10/11 00:16:48;;;;;;;68.15;46.95;;;;;;;13.61;80.67;102257.88;5052659;28;20060;-65
2021/10/11 00:19:15;;;;;;;65.55;47.53;;;;;;;13.54;81.22;102259.06;5052955;28;20049;-66
2021/10/11 00:21:44;;;;;;;66.80;47.58;;;;;;;13.58;81.62;102251.00;5054619;28;20060;-67
2021/10/11 00:24:12;;;;;;;68.38;47.92;;;;;;;13.51;81.59;102259.66;5053561;28;20050;-67
2021/10/11 00:26:39;;;;;;;68.07;47.90;;;;;;;13.33;83.08;102256.84;5054644;28;20045;-66
2021/10/11 00:29:06;;;;;;;71.50;49.03;;;;;;;13.46;82.73;102251.41;5052597;28;20591;-67
2021/10/11 00:31:33;;;;;;;73.88;48.88;;;;;;;13.71;82.26;102266.03;5054674;28;20048;-67
2021/10/11 00:34:01;;;;;;;66.78;48.83;;;;;;;13.50;83.12;102262.72;5054363;28;20076;-66
2021/10/11 00:36:28;;;;;;;69.28;48.65;;;;;;;13.71;82.31;102258.56;5033427;28;20053;-66
2021/10/11 00:38:55;;;;;;;68.97;48.78;;;;;;;13.78;81.40;102266.50;5038801;28;20048;-67
2021/10/11 00:41:27;;;;;;;71.88;49.13;;;;;;;13.61;82.74;102258.72;5054575;28;20062;-65
2021/10/11 00:43:55;;;;;;;75.40;50.63;;;;;;;13.23;84.80;102265.25;5053012;28;20057;-67
2021/10/11 00:46:22;;;;;;;71.07;50.38;;;;;;;13.32;84.37;102261.53;5058051;28;20048;-67
2021/10/11 00:48:49;;;;;;;72.53;49.92;;;;;;;13.39;84.52;102262.00;5058139;28;20389;-66
2021/10/11 00:51:17;;;;;;;70.15;49.63;;;;;;;13.27;84.92;102258.84;5058151;28;20049;-66
2021/10/11 00:53:44;;;;;;;72.10;49.20;;;;;;;13.21;85.43;102251.72;5040367;28;20510;-66
2021/10/11 00:56:11;;;;;;;74.10;51.45;;;;;;;13.39;85.39;102256.47;5056819;28;20060;-66
2021/10/11 00:58:39;;;;;;;72.85;50.72;;;;;;;13.46;84.46;102253.34;5055828;28;20053;-67
2021/10/11 01:01:06;;;;;;;72.65;51.80;;;;;;;13.47;84.28;102250.31;5057834;28;20045;-66
2021/10/11 01:03:34;;;;;;;71.03;50.55;;;;;;;13.53;84.46;102245.50;5056805;28;20045;-67
2021/10/11 01:06:01;;;;;;;77.45;53.42;;;;;;;13.52;84.40;102247.47;5056530;28;20431;-66
2021/10/11 01:08:28;;;;;;;80.80;53.55;;;;;;;13.24;86.38;102247.53;5056529;28;20045;-65
2021/10/11 01:10:56;;;;;;;72.72;52.05;;;;;;;13.55;85.01;102248.81;5057730;28;20049;-66
2021/10/11 01:13:23;;;;;;;73.60;51.47;;;;;;;13.40;85.60;102246.22;5057224;28;20069;-67
2021/10/11 01:15:50;;;;;;;80.63;55.92;;;;;;;13.22;86.79;102247.81;5057527;28;20049;-66
2021/10/11 01:18:18;;;;;;;90.38;55.97;;;;;;;13.11;87.78;102245.47;5057528;28;20051;-66
2021/10/11 01:20:45;;;;;;;76.90;53.15;;;;;;;13.49;86.23;102245.28;5057007;28;20056;-66
2021/10/11 01:23:12;;;;;;;74.50;53.13;;;;;;;13.46;85.56;102247.81;5057481;28;20049;-66
2021/10/11 01:25:40;;;;;;;78.85;53.65;;;;;;;13.40;85.52;102246.22;5057562;28;20112;-67
2021/10/11 01:28:07;;;;;;;78.75;53.38;;;;;;;13.60;85.46;102240.44;5057089;28;20052;-67
2021/10/11 01:30:35;;;;;;;76.90;52.58;;;;;;;13.73;84.10;102230.56;5057274;28;20048;-66
2021/10/11 01:33:02;;;;;;;78.15;53.42;;;;;;;13.34;86.01;102231.63;5055391;28;20049;-67
2021/10/11 01:35:29;;;;;;;80.68;53.05;;;;;;;13.32;86.37;102233.88;5056979;28;20055;-65
2021/10/11 01:37:57;;;;;;;76.68;53.42;;;;;;;13.50;85.91;102246.94;5031404;28;20057;-69
2021/10/11 01:40:24;;;;;;;86.20;54.67;;;;;;;13.34;86.60;102244.63;5052159;28;20057;-67
2021/10/11 01:42:52;;;;;;;80.00;53.15;;;;;;;13.29;86.31;102239.16;5057091;28;20370;-66
2021/10/11 01:45:19;;;;;;;81.05;54.97;;;;;;;13.28;86.85;102229.22;5055428;28;20052;-67
2021/10/11 01:47:47;;;;;;;74.18;53.40;;;;;;;13.30;87.18;102236.09;5038620;28;20055;-66
2021/10/11 01:50:14;;;;;;;85.50;55.40;;;;;;;13.38;86.64;102226.31;5056715;28;20056;-67
2021/10/11 01:52:41;;;;;;;83.50;53.90;;;;;;;13.74;85.72;102226.69;5056883;28;20053;-66
2021/10/11 01:55:09;;;;;;;83.28;55.25;;;;;;;13.23;88.74;102224.56;5055599;28;20048;-67
2021/10/11 01:57:36;;;;;;;78.45;53.58;;;;;;;13.42;89.51;102219.88;5054917;28;20060;-66
2021/10/11 02:00:06;;;;;;;80.72;54.33;;;;;;;13.39;89.66;102230.72;5055607;28;20053;-67
2021/10/11 02:02:35;;;;;;;74.82;52.63;;;;;;;13.47;89.20;102239.22;5055611;28;20376;-67
2021/10/11 02:05:03;;;;;;;78.30;54.58;;;;;;;13.55;89.28;102238.56;5056879;28;20076;-67
2021/10/11 02:07:30;;;;;;;80.97;51.65;;;;;;;13.76;88.02;102241.06;5056772;28;20053;-66
2021/10/11 02:09:58;;;;;;;74.28;49.70;;;;;;;13.80;87.90;102233.81;5057079;28;20412;-67
2021/10/11 02:12:25;;;;;;;78.45;50.65;;;;;;;13.90;86.95;102241.97;5056965;28;20437;-67
2021/10/11 02:14:52;;;;;;;72.22;49.30;;;;;;;14.02;86.61;102239.56;5055127;28;20048;-66
2021/10/11 02:17:19;;;;;;;74.43;48.40;;;;;;;13.86;87.94;102232.63;5056628;28;20053;-66
2021/10/11 02:19:47;;;;;;;75.15;49.35;;;;;;;14.16;86.42;102232.16;5056384;28;20052;-67
2021/10/11 02:22:14;;;;;;;75.38;49.53;;;;;;;13.89;87.49;102232.84;5054871;28;20053;-69
2021/10/11 02:24:41;;;;;;;72.30;49.55;;;;;;;13.74;89.03;102238.59;5056169;28;20045;-66
2021/10/11 02:27:10;;;;;;;72.22;49.13;;;;;;;13.77;88.27;102234.41;5055011;28;20053;-68
2021/10/11 02:29:37;;;;;;;75.70;50.35;;;;;;;13.63;89.51;102239.03;5054942;28;20052;-67
2021/10/11 02:32:05;;;;;;;75.13;48.63;;;;;;;13.78;89.60;102236.88;5054961;28;20048;-68
2021/10/11 02:34:32;;;;;;;74.28;48.40;;;;;;;13.48;90.41;102232.56;5054948;28;20060;-66
2021/10/11 02:36:59;;;;;;;76.05;49.10;;;;;;;13.51;90.40;102233.94;5044017;28;20060;-67
2021/10/11 02:39:27;;;;;;;79.60;49.35;;;;;;;13.65;90.31;102223.75;5044622;28;20128;-67
2021/10/11 02:41:54;;;;;;;72.63;49.00;;;;;;;13.90;88.86;102212.31;5022019;28;20057;-66
2021/10/11 02:44:21;;;;;;;73.40;49.47;;;;;;;13.95;87.37;102208.63;5056098;28;20053;-68
2021/10/11 02:46:49;;;;;;;72.60;48.33;;;;;;;13.90;87.86;102205.94;5055863;28;20057;-67
2021/10/11 02:49:16;;;;;;;73.80;47.50;;;;;;;13.67;89.55;102213.19;5055704;28;20052;-67
2021/10/11 02:51:43;;;;;;;66.25;44.35;;;;;;;13.69;90.11;102222.03;5054339;28;20059;-67
2021/10/11 02:54:11;;;;;;;65.30;42.72;;;;;;;13.36;91.96;102223.84;5054723;28;20053;-67
2021/10/11 02:56:38;;;;;;;69.25;44.78;;;;;;;13.41;92.25;102209.13;5055588;28;20048;-67
2021/10/11 02:59:06;;;;;;;73.93;44.53;;;;;;;13.37;92.18;102208.09;5037165;28;20053;-67
2021/10/11 03:01:33;;;;;;;62.15;41.58;;;;;;;13.49;92.03;102208.47;5055743;28;20053;-67
2021/10/11 03:04:00;;;;;;;62.30;41.08;;;;;;;13.93;90.40;102203.41;5054589;28;20049;-66
2021/10/11 03:06:28;;;;;;;59.50;39.03;;;;;;;13.75;89.80;102204.25;5055590;28;20049;-67
2021/10/11 03:08:55;;;;;;;61.65;40.42;;;;;;;13.63;90.53;102195.56;5054312;28;20048;-67
2021/10/11 03:11:23;;;;;;;61.67;39.47;;;;;;;13.62;91.60;102202.19;5055740;28;20048;-68
2021/10/11 03:13:50;;;;;;;56.63;37.08;;;;;;;13.60;91.55;102198.09;5055690;28;20049;-68
2021/10/11 03:16:17;;;;;;;54.75;36.45;;;;;;;13.93;90.60;102199.84;5055452;28;20068;-67
2021/10/11 03:18:44;;;;;;;57.75;36.53;;;;;;;13.91;89.94;102218.69;5037776;28;20056;-68
2021/10/11 03:21:12;;;;;;;52.97;34.03;;;;;;;13.77;90.97;102212.25;5055273;28;20610;-67
2021/10/11 03:23:39;;;;;;;52.55;34.05;;;;;;;13.93;89.80;102210.91;5054476;28;20053;-74
2021/10/11 03:26:06;;;;;;;49.22;32.65;;;;;;;13.89;90.35;102212.63;5054408;28;20044;-74
2021/10/11 03:28:34;;;;;;;48.78;33.15;;;;;;;13.96;89.89;102208.38;5055345;28;20060;-75
2021/10/11 03:31:01;;;;;;;49.13;29.83;;;;;;;14.21;88.50;102210.72;5037232;28;20045;-75
2021/10/11 03:33:29;;;;;;;46.97;31.40;;;;;;;14.01;88.90;102213.84;5055391;28;20056;-74
2021/10/11 03:35:56;;;;;;;45.60;30.00;;;;;;;13.78;90.61;102227.72;5055427;28;20381;-74
2021/10/11 03:38:23;;;;;;;42.00;26.25;;;;;;;13.64;91.41;102218.50;5036585;28;20057;-75
2021/10/11 03:40:51;;;;;;;41.13;25.45;;;;;;;13.74;91.58;102221.16;5015563;28;20059;-74
2021/10/11 03:43:18;;;;;;;37.20;22.10;;;;;;;13.67;90.96;102223.47;5014500;28;20520;-73
2021/10/11 03:45:50;;;;;;;34.22;21.30;;;;;;;13.69;91.18;102221.22;5015871;28;20056;-73
2021/10/11 03:48:17;;;;;;;33.92;19.67;;;;;;;13.86;90.86;102227.09;5013579;28;20077;-74
2021/10/11 03:50:46;;;;;;;35.63;19.15;;;;;;;13.74;90.83;102221.97;5015553;28;20046;-74
2021/10/11 03:53:14;;;;;;;31.23;17.48;;;;;;;13.67;90.69;102231.78;5015765;28;20056;-73
2021/10/11 03:55:41;;;;;;;32.97;16.95;;;;;;;13.72;91.18;102228.94;5015740;28;20061;-74
2021/10/11 03:58:09;;;;;;;29.88;18.27;;;;;;;13.70;91.09;102233.94;5015483;28;20060;-74
2021/10/11 04:00:37;;;;;;;31.65;17.63;;;;;;;13.68;91.12;102233.41;5014955;28;20053;-74
2021/10/11 04:03:06;;;;;;;29.60;17.13;;;;;;;13.79;90.57;102235.75;5015385;28;20050;-73
2021/10/11 04:05:33;;;;;;;26.48;16.52;;;;;;;13.88;90.13;102225.66;5014178;28;20054;-73
2021/10/11 04:08:08;;;;;;;29.27;15.60;;;;;;;14.06;88.96;102221.22;5015416;28;20054;-75
2021/10/11 04:10:43;;;;;;;24.58;13.77;;;;;;;14.05;88.55;102217.63;5014426;28;20046;-66
2021/10/11 04:13:11;;;;;;;23.33;13.48;;;;;;;13.97;87.64;102215.53;5015228;28;20465;-73
2021/10/11 04:15:38;;;;;;;23.60;12.30;;;;;;;13.63;90.37;102216.88;5014143;28;20061;-73
2021/10/11 04:18:05;;;;;;;24.58;12.65;;;;;;;13.63;90.83;102217.72;5015032;28;20739;-75
2021/10/11 04:20:34;;;;;;;19.15;11.25;;;;;;;13.48;91.21;102226.19;4999816;28;20418;-73
2021/10/11 04:23:01;;;;;;;26.10;11.55;;;;;;;13.68;90.58;102227.88;5017500;28;20050;-74
2021/10/11 04:25:28;;;;;;;29.63;11.80;;;;;;;13.97;88.98;102229.41;5017591;28;20056;-73
2021/10/11 04:27:55;;;;;;;25.13;11.85;;;;;;;13.83;88.70;102236.81;5018811;28;20520;-73
2021/10/11 04:30:23;;;;;;;18.63;10.05;;;;;;;14.03;88.17;102235.69;5018677;28;20057;-75
2021/10/11 04:32:50;;;;;;;20.75;11.23;;;;;;;13.79;88.72;102230.19;5018839;28;20382;-74
2021/10/11 04:35:21;;;;;;;26.75;11.15;;;;;;;13.63;90.10;102241.78;5018439;28;20508;-73
2021/10/11 04:37:49;;;;;;;18.50;9.93;;;;;;;13.67;89.33;102243.66;5021512;28;20081;-74
2021/10/11 04:40:16;;;;;;;19.63;9.85;;;;;;;13.58;90.10;102240.72;5035576;28;20045;-75
2021/10/11 04:42:44;;;;;;;20.70;9.25;;;;;;;13.57;89.93;102244.63;5037969;28;20049;-74
2021/10/11 04:45:11;;;;;;;19.70;9.50;;;;;;;13.46;90.45;102237.56;5038677;28;20057;-74
2021/10/11 04:47:40;;;;;;;23.77;10.45;;;;;;;13.86;89.67;102247.28;5038539;28;20053;-73
2021/10/11 04:50:07;;;;;;;20.27;9.80;;;;;;;13.82;88.74;102245.41;5037906;28;20056;-73
2021/10/11 04:52:35;;;;;;;24.17;9.25;;;;;;;13.85;87.61;102253.13;5038332;28;20068;-72
2021/10/11 04:55:03;;;;;;;20.98;8.10;;;;;;;13.67;88.74;102251.16;5038162;28;20408;-74
2021/10/11 04:57:30;;;;;;;17.42;7.72;;;;;;;13.53;89.07;102257.41;5053484;28;20041;-72
2021/10/11 04:59:57;;;;;;;19.33;8.23;;;;;;;13.66;88.80;102255.88;5036594;28;20060;-73
2021/10/11 05:02:24;;;;;;;23.40;8.18;;;;;;;13.49;88.74;102255.53;5036463;28;20540;-72
2021/10/11 05:04:51;;;;;;;20.42;8.38;;;;;;;13.54;88.17;102258.25;5037849;28;20397;-72
2021/10/11 05:07:19;;;;;;;19.85;7.90;;;;;;;13.95;86.73;102259.34;5037849;28;20061;-72
2021/10/11 05:09:51;;;;;;;23.00;9.88;;;;;;;13.52;89.24;102261.31;5037574;28;20052;-73
2021/10/11 05:12:18;;;;;;;25.50;12.00;;;;;;;13.28;90.75;102262.44;5037948;28;20056;-72
2021/10/11 05:14:45;;;;;;;26.88;11.85;;;;;;;13.07;92.62;102258.22;5037870;28;20045;-73
2021/10/11 05:17:13;;;;;;;24.52;13.23;;;;;;;13.39;91.29;102253.72;5037749;28;20057;-73
2021/10/11 05:19:40;;;;;;;27.38;15.45;;;;;;;13.53;90.44;102262.13;5037590;28;20053;-72
2021/10/11 05:22:07;;;;;;;31.77;15.65;;;;;;;13.63;90.36;102258.41;5037368;28;20045;-73
2021/10/11 05:24:35;;;;;;;34.08;17.45;;;;;;;13.46;89.64;102251.41;5037576;28;20425;-73
2021/10/11 05:27:02;;;;;;;34.35;18.13;;;;;;;13.44;90.26;102248.09;5036344;28;20057;-72
2021/10/11 05:29:29;;;;;;;31.65;19.05;;;;;;;13.66;89.95;102252.28;5037246;28;20049;-73
2021/10/11 05:31:56;;;;;;;30.30;17.90;;;;;;;13.61;88.93;102255.94;5036251;28;20049;-72
2021/10/11 05:34:25;;;;;;;33.40;17.38;;;;;;;13.54;88.85;102267.38;5036173;28;20061;-72
2021/10/11 05:36:53;;;;;;;37.88;22.75;;;;;;;13.45;89.14;102263.63;5035851;28;20057;-73
2021/10/11 05:39:20;;;;;;;42.85;25.63;;;;;;;13.68;89.33;102261.94;5030228;28;20057;-72
2021/10/11 05:41:47;;;;;;;41.97;27.50;;;;;;;13.63;89.05;102267.53;5017567;28;20366;-74
2021/10/11 05:44:14;;;;;;;48.80;30.80;;;;;;;13.36;89.78;102270.06;5024042;28;20049;-72
2021/10/11 05:46:42;;;;;;;45.63;30.60;;;;;;;13.14;91.24;102267.84;5037081;28;20053;-73
2021/10/11 05:49:11;;;;;;;47.15;28.67;;;;;;;13.31;91.68;102259.91;5036977;28;20049;-73
2021/10/11 05:51:38;;;;;;;44.42;29.20;;;;;;;13.25;91.20;102260.25;5035258;28;20053;-73
2021/10/11 05:54:06;;;;;;;43.03;27.30;;;;;;;13.03;91.95;102262.69;5034659;28;20057;-73
2021/10/11 05:56:33;;;;;;;45.28;28.15;;;;;;;12.81;93.26;102274.22;5035513;28;20045;-72
2021/10/11 05:59:02;;;;;;;42.70;27.83;;;;;;;12.74;93.88;102276.50;5036123;28;20046;-74
2021/10/11 06:01:29;;;;;;;45.53;26.33;;;;;;;12.70;95.17;102283.72;5035491;28;20048;-72
2021/10/11 06:03:57;;;;;;;51.38;28.30;;;;;;;12.66;95.58;102282.63;5036418;28;20488;-73
2021/10/11 06:06:24;;;;;;;51.55;29.90;;;;;;;12.69;95.39;102284.84;5036738;28;20049;-72
2021/10/11 06:08:54;;;;;;;45.75;26.65;;;;;;;12.94;94.01;102289.28;5036365;28;20049;-73
2021/10/11 06:11:22;;;;;;;39.50;26.73;;;;;;;12.93;93.56;102294.03;5035981;28;20056;-74
2021/10/11 06:13:49;;;;;;;44.92;26.52;;;;;;;12.98;92.64;102299.50;5036878;28;20504;-72
2021/10/11 06:16:16;;;;;;;42.25;24.52;;;;;;;12.81;94.06;102299.13;5029918;28;20053;-71
2021/10/11 06:18:44;;;;;;;32.60;22.13;;;;;;;12.76;93.11;102303.88;5033547;28;20049;-70
2021/10/11 06:21:11;;;;;;;37.17;21.52;;;;;;;12.87;93.19;102310.94;5035621;28;20049;-69
2021/10/11 06:23:38;;;;;;;31.42;20.33;;;;;;;12.90;92.46;102310.38;5023721;28;20037;-69
2021/10/11 06:26:06;;;;;;;28.10;17.42;;;;;;;12.52;92.78;102306.53;5036924;28;20505;-68
2021/10/11 06:28:33;;;;;;;32.53;17.75;;;;;;;12.40;94.24;102306.91;5034405;28;20053;-68
2021/10/11 06:31:00;;;;;;;33.70;17.60;;;;;;;12.79;93.34;102306.88;5034477;28;20068;-68
2021/10/11 06:33:27;;;;;;;29.38;17.23;;;;;;;13.18;92.14;102307.63;5034403;28;20052;-68
2021/10/11 06:35:55;;;;;;;30.73;17.02;;;;;;;13.09;90.13;102314.09;5032088;28;20413;-68
2021/10/11 06:38:22;;;;;;;30.45;16.00;;;;;;;13.09;89.87;102317.66;5029471;28;20052;-70
2021/10/11 06:40:52;;;;;;;24.35;15.43;;;;;;;13.04;89.40;102326.03;5032402;28;20068;-67
2021/10/11 06:43:20;;;;;;;27.80;16.23;;;;;;;12.91;90.16;102320.31;5015227;28;20057;-68
2021/10/11 06:45:48;;;;;;;26.20;15.02;;;;;;;12.67;90.63;102313.88;5024064;28;20053;-66
2021/10/11 06:48:17;;;;;;;27.58;14.07;;;;;;;12.86;90.88;102317.59;5033317;28;20524;-68
2021/10/11 06:50:45;;;;;;;32.97;14.45;;;;;;;12.78;90.19;102327.31;5032237;28;20049;-68
2021/10/11 06:53:13;;;;;;;25.23;13.20;;;;;;;12.88;89.44;102326.44;5033855;28;20045;-69
2021/10/11 06:55:41;;;;;;;27.95;13.90;;;;;;;12.79;89.95;102322.63;5033859;28;20048;-72
2021/10/11 06:58:08;;;;;;;27.23;14.35;;;;;;;12.90;89.11;102327.78;5033366;28;20049;-69
2021/10/11 07:00:37;;;;;;;32.85;13.60;;;;;;;13.00;88.97;102324.09;5032876;28;20053;-69
2021/10/11 07:03:08;;;;;;;29.23;13.73;;;;;;;12.65;89.08;102329.94;5035146;28;20056;-69
2021/10/11 07:05:35;;;;;;;27.60;14.45;;;;;;;12.63;90.66;102321.94;5035012;28;20048;-69
2021/10/11 07:08:09;;;;;;;28.48;14.15;;;;;;;12.86;90.18;102318.44;5035519;28;20505;-69
2021/10/11 07:10:37;;;;;;;27.90;14.60;;;;;;;13.21;88.09;102309.81;5034829;28;20041;-68
2021/10/11 07:13:05;;;;;;;22.73;12.75;;;;;;;13.45;86.50;102318.13;5033157;28;20057;-68
2021/10/11 07:15:33;;;;;;;24.08;12.98;;;;;;;12.98;86.76;102329.94;5034772;28;20049;-69
2021/10/11 07:18:01;;;;;;;28.23;13.75;;;;;;;12.53;89.66;102324.78;5034983;28;20049;-68
2021/10/11 07:20:28;;;;;;;23.52;13.52;;;;;;;12.78;89.61;102329.28;5033791;28;20041;-68
2021/10/11 07:22:55;;;;;;;24.15;13.40;;;;;;;12.67;88.94;102333.22;5034316;28;21534;-68
2021/10/11 07:25:23;;;;;;;24.10;12.02;;;;;;;12.60;89.43;102341.03;5035018;28;20673;-68
2021/10/11 07:27:50;;;;;;;26.90;13.30;;;;;;;12.59;89.35;102345.72;5034814;28;20061;-69
2021/10/11 07:30:17;;;;;;;24.38;13.05;;;;;;;12.74;88.74;102348.41;5033599;28;20049;-69
2021/10/11 07:32:45;;;;;;;30.35;12.57;;;;;;;12.78;87.99;102351.41;5032753;28;20064;-68
2021/10/11 07:35:12;;;;;;;29.95;12.70;;;;;;;12.55;88.70;102361.25;5029950;28;20050;-69
2021/10/11 07:37:48;;;;;;;27.85;11.82;;;;;;;12.45;88.74;102367.66;5031217;28;20041;-68
2021/10/11 07:40:16;;;;;;;25.42;10.90;;;;;;;12.66;87.83;102365.56;5034576;28;20053;-68
2021/10/11 07:42:44;;;;;;;19.20;10.40;;;;;;;12.76;87.05;102368.25;5034698;28;20427;-68
2021/10/11 07:45:11;;;;;;;17.27;9.23;;;;;;;12.52;86.96;102377.59;5034826;28;20056;-68
2021/10/11 07:47:39;;;;;;;18.75;10.25;;;;;;;12.71;86.22;102379.34;5034599;28;20052;-68
2021/10/11 07:50:06;;;;;;;21.83;9.40;;;;;;;12.91;85.32;102365.41;5034440;28;20072;-69
2021/10/11 07:52:34;;;;;;;25.85;9.10;;;;;;;13.41;83.97;102358.59;5034532;28;20045;-68
2021/10/11 07:55:01;;;;;;;21.73;8.95;;;;;;;13.60;81.40;102361.44;5036949;28;20056;-69
2021/10/11 07:57:33;;;;;;;20.27;9.10;;;;;;;13.27;82.13;102369.53;5020842;28;20054;-68
2021/10/11 08:00:02;;;;;;;18.48;9.45;;;;;;;12.97;83.44;102369.75;5036894;28;20045;-68
2021/10/11 08:02:30;;;;;;;23.08;10.27;;;;;;;12.82;84.95;102374.59;5039047;28;20053;-68
2021/10/11 08:04:58;;;;;;;21.20;9.38;;;;;;;13.08;83.60;102382.44;5036728;28;20064;-67
2021/10/11 08:07:25;;;;;;;24.83;9.30;;;;;;;13.09;83.42;102374.97;5038435;28;20053;-68
2021/10/11 08:09:52;;;;;;;22.30;9.23;;;;;;;13.29;83.24;102375.59;5017975;28;20065;-71
2021/10/11 08:12:20;;;;;;;20.95;9.70;;;;;;;13.45;81.82;102382.63;5036646;28;20049;-69
2021/10/11 08:14:47;;;;;;;20.05;7.20;;;;;;;13.40;81.15;102384.63;5020979;28;20054;-69
2021/10/11 08:17:15;;;;;;;25.85;7.38;;;;;;;13.14;80.74;102389.59;5037810;28;20049;-69
2021/10/11 08:19:42;;;;;;;17.60;6.25;;;;;;;13.23;81.39;102376.75;5052591;28;20056;-70
2021/10/11 08:22:19;;;;;;;16.00;5.53;;;;;;;13.44;79.40;102369.09;5038713;28;20045;-70
2021/10/11 08:24:48;;;;;;;15.10;5.10;;;;;;;13.27;78.56;102377.81;5038694;28;20465;-73
2021/10/11 08:27:18;;;;;;;17.98;4.82;;;;;;;13.48;77.80;102379.28;5038307;28;20049;-72
2021/10/11 08:29:53;;;;;;;15.07;4.18;;;;;;;13.57;76.71;102376.69;5038170;28;20049;-67
2021/10/11 08:32:25;;;;;;;17.48;4.10;;;;;;;13.26;76.60;102378.97;5030852;28;20171;-69
2021/10/11 08:34:53;;;;;;;15.50;3.65;;;;;;;13.31;76.89;102384.44;5037210;28;20053;-69
2021/10/11 08:37:21;;;;;;;17.85;3.38;;;;;;;13.37;76.46;102382.44;5038280;28;20072;-69
2021/10/11 08:39:50;;;;;;;15.73;3.38;;;;;;;13.45;75.26;102382.63;5049153;28;20511;-69
2021/10/11 08:42:19;;;;;;;14.98;3.72;;;;;;;13.71;74.38;102379.59;5041900;28;20042;-69
2021/10/11 08:44:46;;;;;;;14.48;3.75;;;;;;;13.82;73.87;102381.13;5037761;28;20056;-69
2021/10/11 08:47:15;;;;;;;18.67;3.90;;;;;;;13.58;74.08;102373.63;5036112;28;20516;-70
2021/10/11 08:49:46;;;;;;;21.73;3.78;;;;;;;13.56;74.49;102373.09;5037700;28;20060;-68
2021/10/11 08:52:14;;;;;;;16.63;4.15;;;;;;;13.90;73.70;102383.25;5037523;28;20048;-68
2021/10/11 08:54:42;;;;;;;13.18;3.30;;;;;;;13.83;73.31;102386.38;5035334;28;20056;-70
2021/10/11 08:57:23;;;;;;;16.83;4.00;;;;;;;13.88;72.63;102379.97;5036138;28;20432;-69
2021/10/11 08:59:52;;;;;;;20.77;2.67;;;;;;;14.27;71.24;102395.28;5035846;28;20049;-70
2021/10/11 09:02:20;;;;;;;14.15;2.78;;;;;;;14.02;70.46;102397.50;5034960;28;20056;-69
2021/10/11 09:04:56;;;;;;;15.27;2.63;;;;;;;14.11;70.30;102379.09;5036975;28;20065;-70
2021/10/11 09:07:28;;;;;;;16.90;3.20;;;;;;;14.18;70.21;102393.41;5037669;28;20072;-69
2021/10/11 09:09:58;;;;;;;18.70;3.17;;;;;;;14.22;69.35;102395.31;5037558;28;20046;-69
2021/10/11 09:12:28;;;;;;;10.32;2.85;;;;;;;14.13;69.74;102393.47;5017798;28;20068;-70
2021/10/11 09:15:08;;;;;;;12.07;2.75;;;;;;;14.20;69.37;102394.78;5037179;28;20041;-71
2021/10/11 09:17:41;;;;;;;11.20;2.92;;;;;;;14.18;69.79;102398.97;5033852;28;20057;-70
2021/10/11 09:20:14;;;;;;;11.50;3.00;;;;;;;14.44;68.45;102401.13;5018880;28;20056;-69
2021/10/11 09:22:43;;;;;;;15.68;3.97;;;;;;;14.40;67.77;102393.72;5035148;28;20045;-69
2021/10/11 09:25:11;;;;;;;13.98;3.15;;;;;;;14.30;68.43;102393.84;5025176;28;20753;-71
2021/10/11 09:27:43;;;;;;;12.32;2.90;;;;;;;14.42;68.69;102399.78;5037063;28;20041;-71
2021/10/11 09:30:11;;;;;;;12.43;3.20;;;;;;;14.67;67.00;102393.88;5034448;28;20590;-71
2021/10/11 09:32:39;;;;;;;11.75;2.60;;;;;;;14.72;66.78;102396.56;5036530;28;20049;-70
2021/10/11 09:35:20;;;;;;;13.07;2.90;;;;;;;14.34;65.07;102392.13;5038986;28;20397;-71
2021/10/11 09:37:51;;;;;;;10.75;2.70;;;;;;;14.66;65.48;102383.91;5040008;28;20049;-69
2021/10/11 09:40:20;;;;;;;11.95;2.00;;;;;;;14.57;63.59;102388.47;5048028;28;20065;-71
2021/10/11 09:42:48;;;;;;;10.23;2.10;;;;;;;14.50;64.04;102377.78;5037689;28;20049;-71
2021/10/11 09:45:23;;;;;;;9.02;2.05;;;;;;;14.71;63.47;102391.31;5038184;28;20053;-71
2021/10/11 09:47:51;;;;;;;14.98;2.58;;;;;;;14.48;64.31;102381.97;5044931;28;20049;-71
2021/10/11 09:50:18;;;;;;;11.80;2.30;;;;;;;14.45;64.38;102388.91;5048570;28;20053;-70
2021/10/11 09:52:46;;;;;;;13.48;2.80;;;;;;;14.55;64.04;102387.94;5036018;28;20045;-71
2021/10/11 09:55:14;;;;;;;11.23;2.70;;;;;;;14.46;64.45;102381.44;5037034;28;20413;-71
2021/10/11 09:57:42;;;;;;;11.65;2.67;;;;;;;14.68;63.40;102378.06;5045873;28;20128;-70
2021/10/11 10:00:11;;;;;;;11.35;3.00;;;;;;;14.83;62.61;102380.59;5050267;28;20044;-70
2021/10/11 10:02:41;;;;;;;14.32;3.05;;;;;;;14.70;62.48;102381.38;5026712;28;20054;-71
2021/10/11 10:05:21;;;;;;;14.00;2.38;;;;;;;14.73;62.62;102377.97;5015539;28;20497;-72
2021/10/11 10:07:51;;;;;;;14.82;2.95;;;;;;;14.58;62.90;102379.84;5028000;28;20056;-72
2021/10/11 10:10:24;;;;;;;13.45;2.72;;;;;;;14.93;62.40;102374.88;5018336;28;20524;-72
2021/10/11 10:12:51;;;;;;;7.60;2.03;;;;;;;14.72;60.45;102374.38;5035620;28;20053;-72
2021/10/11 10:15:35;;;;;;;13.27;2.65;;;;;;;14.68;60.25;102376.94;5036037;28;20056;-71
2021/10/11 10:18:03;;;;;;;13.15;2.50;;;;;;;14.72;60.23;102384.63;5036036;28;20164;-71
2021/10/11 10:20:31;;;;;;;12.43;2.80;;;;;;;14.79;60.43;102376.75;5036206;28;20452;-72
2021/10/11 10:22:59;;;;;;;7.35;2.63;;;;;;;14.69;60.52;102388.84;5036995;28;20497;-71
2021/10/11 10:25:27;;;;;;;13.88;3.15;;;;;;;14.54;60.25;102376.03;5036053;28;20053;-71
2021/10/11 10:28:12;;;;;;;10.48;2.63;;;;;;;14.66;60.91;102381.16;5036355;28;20496;-71
2021/10/11 10:30:39;;;;;;;12.68;2.80;;;;;;;14.95;60.70;102372.63;5034474;28;20061;-71
2021/10/11 10:33:11;;;;;;;11.35;2.58;;;;;;;14.76;59.17;102383.75;5018664;28;20432;-70
2021/10/11 10:35:44;;;;;;;9.65;2.33;;;;;;;14.67;58.40;102393.88;5034498;28;20056;-70
2021/10/11 10:38:19;;;;;;;13.10;2.78;;;;;;;14.86;56.99;102377.22;5038678;28;20057;-71
2021/10/11 10:40:48;;;;;;;9.38;2.30;;;;;;;14.85;56.38;102361.69;5043164;28;20044;-73
2021/10/11 10:43:18;;;;;;;10.20;2.13;;;;;;;14.86;56.84;102372.50;5032347;28;20049;-71
2021/10/11 10:45:49;;;;;;;10.88;2.17;;;;;;;14.82;56.47;102379.75;5034646;28;20404;-72
2021/10/11 10:48:25;;;;;;;10.00;2.50;;;;;;;14.74;56.33;102377.69;5031661;28;20073;-71
2021/10/11 10:50:56;;;;;;;8.82;2.45;;;;;;;14.89;54.81;102377.44;5032484;28;20125;-73
2021/10/11 10:53:28;;;;;;;11.25;2.33;;;;;;;14.93;55.29;102375.72;5031521;28;20049;-69
2021/10/11 10:55:55;;;;;;;8.68;2.05;;;;;;;14.81;55.22;102386.44;5035526;28;20049;-69
2021/10/11 10:58:23;;;;;;;9.98;2.60;;;;;;;14.92;55.46;102382.41;5033843;28;20053;-70
2021/10/11 11:00:50;;;;;;;11.25;2.30;;;;;;;15.06;55.74;102390.78;5019742;28;20049;-72
2021/10/11 11:03:18;;;;;;;8.52;2.35;;;;;;;14.97;56.65;102390.63;5022094;28;20064;-70
2021/10/11 11:05:48;;;;;;;7.43;2.40;;;;;;;15.20;56.43;102380.53;5032447;28;20049;-72
2021/10/11 11:08:35;;;;;;;10.10;2.67;;;;;;;15.31;55.73;102380.03;5025434;28;20056;-68
2021/10/11 11:11:03;;;;;;;17.00;3.08;;;;;;;15.37;55.28;102378.84;5035406;28;20049;-69
2021/10/11 11:13:30;;;;;;;8.25;2.53;;;;;;;15.47;55.37;102380.63;5034998;28;20037;-70
2021/10/11 11:15:58;;;;;;;11.80;2.95;;;;;;;15.79;54.07;102367.47;5034691;28;20513;-69
2021/10/11 11:18:26;;;;;;;10.65;2.58;;;;;;;15.69;53.79;102381.56;5034974;28;20052;-70